createdAt,value
2022-11-10T00:02:15.337Z,2.00
2022-11-10T00:04:45.706Z,1.92
2022-11-10T00:07:16.020Z,2.00
2022-11-10T00:09:46.482Z,2.10
2022-11-10T00:12:16.798Z,2.00
2022-11-10T00:15:05.475Z,1.90
2022-11-10T00:17:39.527Z,2.20
2022-11-10T00:20:11.070Z,2.00
2022-11-10T00:22:42.181Z,2.17
2022-11-10T00:25:12.731Z,1.80
2022-11-10T00:27:43.045Z,1.80
2022-11-10T00:30:14.116Z,1.90
2022-11-10T00:32:44.431Z,2.15
2022-11-10T00:35:14.908Z,1.75
2022-11-10T00:37:45.287Z,1.85
2022-11-10T00:40:15.916Z,2.17
2022-11-10T00:42:46.288Z,1.80
2022-11-10T00:45:16.684Z,2.10
2022-11-10T00:47:47.634Z,1.98
2022-11-10T00:50:18.074Z,2.10
2022-11-10T00:52:48.474Z,2.27
2022-11-10T00:55:18.849Z,2.27
2022-11-10T00:57:49.251Z,2.27
2022-11-10T01:00:19.618Z,2.20
2022-11-10T01:02:50.007Z,2.20
2022-11-10T01:05:20.387Z,2.33
2022-11-10T01:07:50.869Z,2.30
2022-11-10T01:10:21.279Z,2.10
2022-11-10T01:12:51.659Z,2.25
2022-11-10T01:15:27.235Z,2.12
2022-11-10T01:17:56.509Z,2.40
2022-11-10T01:20:26.921Z,2.25
2022-11-10T01:22:57.284Z,2.25
2022-11-10T01:25:27.854Z,2.25
2022-11-10T01:27:58.227Z,2.17
2022-11-10T01:30:28.641Z,2.25
2022-11-10T01:32:59.024Z,2.00
2022-11-10T01:35:29.500Z,1.85
2022-11-10T01:37:59.859Z,2.17
2022-11-10T01:40:30.244Z,1.95
2022-11-10T01:43:00.663Z,1.90
2022-11-10T01:45:54.779Z,2.10
2022-11-10T01:48:31.172Z,1.92
2022-11-10T01:51:04.622Z,1.85
2022-11-10T01:53:38.818Z,2.37
2022-11-10T01:56:10.629Z,1.92
2022-11-10T01:58:44.024Z,1.75
2022-11-10T02:01:15.433Z,1.80
2022-11-10T02:03:49.028Z,1.90
2022-11-10T02:06:22.498Z,2.02
2022-11-10T02:08:53.483Z,1.90
2022-11-10T02:11:24.288Z,2.10
2022-11-10T02:13:55.541Z,2.10
2022-11-10T02:16:26.069Z,2.02
2022-11-10T02:18:56.728Z,1.95
2022-11-10T02:21:27.177Z,2.22
2022-11-10T02:23:57.552Z,2.20
2022-11-10T02:26:30.564Z,2.05
2022-11-10T02:29:01.019Z,2.40
2022-11-10T02:31:31.396Z,2.45
2022-11-10T02:34:01.953Z,2.25
2022-11-10T02:36:32.406Z,1.98
2022-11-10T02:39:02.716Z,2.12
2022-11-10T02:41:36.313Z,2.30
2022-11-10T02:44:07.908Z,2.02
2022-11-10T02:46:38.413Z,2.10
2022-11-10T02:49:08.898Z,2.00
2022-11-10T02:51:39.884Z,2.25
2022-11-10T02:54:10.302Z,2.00
2022-11-10T02:56:40.692Z,2.10
2022-11-10T02:59:11.215Z,2.30
2022-11-10T03:01:41.789Z,2.33
2022-11-10T03:04:12.636Z,2.15
2022-11-10T03:06:43.095Z,2.17
2022-11-10T03:09:13.445Z,2.15
2022-11-10T03:11:43.748Z,2.25
2022-11-10T03:14:14.250Z,2.87
2022-11-10T03:16:44.565Z,2.27
2022-11-10T03:19:14.890Z,2.10
2022-11-10T03:21:45.255Z,2.58
2022-11-10T03:24:15.621Z,2.50
2022-11-10T03:26:46.026Z,2.20
2022-11-10T03:29:16.496Z,2.37
2022-11-10T03:31:48.409Z,2.05
2022-11-10T03:34:18.701Z,2.62
2022-11-10T03:36:49.080Z,2.40
2022-11-10T03:39:19.526Z,2.42
2022-11-10T03:41:52.519Z,2.62
2022-11-10T03:44:22.975Z,2.58
2022-11-10T03:46:53.348Z,2.60
2022-11-10T03:49:23.671Z,2.52
2022-11-10T03:51:54.035Z,3.00
2022-11-10T03:54:24.434Z,2.30
2022-11-10T03:56:55.691Z,2.22
2022-11-10T03:59:26.180Z,2.42
2022-11-10T04:01:56.593Z,2.30
2022-11-10T04:04:44.846Z,2.40
2022-11-10T04:07:33.096Z,2.50
2022-11-10T04:10:03.933Z,3.05
2022-11-10T04:12:52.643Z,2.60
2022-11-10T04:15:40.908Z,3.00
2022-11-10T04:18:21.579Z,2.80
2022-11-10T04:21:00.639Z,2.92
2022-11-10T04:23:36.051Z,2.50
2022-11-10T04:26:30.285Z,2.50
2022-11-10T04:29:02.375Z,2.67
2022-11-10T04:31:35.646Z,2.80
2022-11-10T04:34:07.981Z,2.65
2022-11-10T04:36:39.883Z,3.60
2022-11-10T04:39:11.393Z,2.77
2022-11-10T04:41:41.852Z,2.85
2022-11-10T04:44:12.266Z,2.80
2022-11-10T04:46:44.100Z,2.50
2022-11-10T04:49:14.561Z,3.08
2022-11-10T04:51:44.930Z,3.22
2022-11-10T04:54:15.293Z,2.80
2022-11-10T04:56:45.607Z,3.42
2022-11-10T04:59:15.936Z,2.80
2022-11-10T05:01:46.263Z,2.85
2022-11-10T05:04:16.745Z,2.80
2022-11-10T05:06:47.094Z,2.90
2022-11-10T05:09:17.471Z,3.27
2022-11-10T05:11:47.921Z,3.20
2022-11-10T05:14:18.231Z,3.17
2022-11-10T05:16:48.624Z,2.98
2022-11-10T05:19:19.087Z,3.55
2022-11-10T05:21:50.998Z,3.55
2022-11-10T05:24:21.283Z,3.55
2022-11-10T05:26:51.633Z,3.00
2022-11-10T05:29:22.008Z,3.35
2022-11-10T05:31:52.453Z,2.83
2022-11-10T05:34:23.079Z,3.00
2022-11-10T05:36:53.905Z,3.33
2022-11-10T05:39:24.336Z,3.10
2022-11-10T05:41:54.692Z,3.53
2022-11-10T05:44:25.310Z,3.72
2022-11-10T05:46:55.715Z,3.50
2022-11-10T05:49:27.389Z,3.40
2022-11-10T05:51:57.847Z,4.03
2022-11-10T05:54:28.239Z,3.67
2022-11-10T05:56:58.615Z,3.30
2022-11-10T05:59:28.983Z,3.25
2022-11-10T06:01:59.494Z,3.15
2022-11-10T06:04:29.908Z,3.42
2022-11-10T06:07:00.709Z,3.75
2022-11-10T06:09:31.117Z,3.45
2022-11-10T06:12:03.536Z,3.75
2022-11-10T06:14:33.887Z,3.60
2022-11-10T06:17:04.271Z,4.00
2022-11-10T06:19:34.661Z,3.47
2022-11-10T06:22:07.769Z,3.47
2022-11-10T06:24:37.493Z,3.70
2022-11-10T06:27:07.984Z,4.03
2022-11-10T06:29:38.388Z,3.33
2022-11-10T06:32:08.740Z,3.90
2022-11-10T06:34:39.161Z,3.80
2022-11-10T06:37:09.636Z,4.10
2022-11-10T06:39:40.014Z,3.98
2022-11-10T06:42:10.305Z,3.75
2022-11-10T06:44:40.679Z,4.15
2022-11-10T06:47:11.005Z,4.28
2022-11-10T06:49:41.389Z,4.00
2022-11-10T06:52:11.874Z,4.30
2022-11-10T06:54:42.317Z,4.15
2022-11-10T06:57:12.627Z,4.05
2022-11-10T06:59:43.215Z,4.15
2022-11-10T07:02:17.175Z,4.35
2022-11-10T07:04:49.295Z,4.10
2022-11-10T07:07:19.761Z,4.03
2022-11-10T07:09:50.155Z,3.52
2022-11-10T07:12:20.469Z,3.92
2022-11-10T07:14:50.916Z,3.55
2022-11-10T07:17:22.186Z,3.90
2022-11-10T07:19:52.687Z,3.85
2022-11-10T07:22:23.426Z,4.05
2022-11-10T07:24:53.680Z,4.10
2022-11-10T07:27:24.116Z,3.90
2022-11-10T07:29:54.591Z,3.80
2022-11-10T07:32:25.043Z,4.15
2022-11-10T07:34:55.424Z,3.90
2022-11-10T07:37:25.764Z,3.60
2022-11-10T07:39:56.271Z,3.87
2022-11-10T07:42:26.669Z,4.22
2022-11-10T07:44:57.060Z,4.03
2022-11-10T07:47:27.446Z,3.95
2022-11-10T07:49:57.830Z,3.72
2022-11-10T07:52:28.273Z,4.17
2022-11-10T07:54:58.779Z,3.92
2022-11-10T07:57:29.132Z,4.30
2022-11-10T07:59:59.659Z,4.00
2022-11-10T08:02:30.042Z,4.22
2022-11-10T08:05:00.461Z,4.10
2022-11-10T08:07:31.098Z,3.92
2022-11-10T08:10:01.664Z,4.25
2022-11-10T08:12:33.806Z,4.03
2022-11-10T08:15:05.041Z,4.67
2022-11-10T08:17:35.462Z,4.28
2022-11-10T08:20:06.668Z,4.28
2022-11-10T08:22:37.198Z,4.80
2022-11-10T08:25:08.288Z,4.03
2022-11-10T08:27:38.789Z,4.15
2022-11-10T08:30:09.927Z,4.90
2022-11-10T08:32:40.408Z,4.50
2022-11-10T08:35:10.784Z,4.62
2022-11-10T08:37:41.178Z,4.20
2022-11-10T08:40:12.340Z,4.87
2022-11-10T08:42:42.694Z,4.70
2022-11-10T08:45:14.000Z,4.40
2022-11-10T08:47:44.683Z,4.58
2022-11-10T08:50:15.312Z,4.50
2022-11-10T08:52:45.671Z,4.20
2022-11-10T08:55:16.138Z,4.55
2022-11-10T08:57:46.983Z,5.47
2022-11-10T09:00:18.453Z,4.33
2022-11-10T09:02:48.760Z,4.67
2022-11-10T09:05:19.056Z,4.08
2022-11-10T09:07:51.479Z,4.25
2022-11-10T09:10:21.799Z,3.30
2022-11-10T09:12:52.181Z,3.60
2022-11-10T09:15:22.591Z,4.08
2022-11-10T09:17:53.033Z,3.92
2022-11-10T09:20:23.504Z,4.05
2022-11-10T09:22:53.873Z,3.98
2022-11-10T09:25:24.788Z,3.80
2022-11-10T09:27:55.091Z,4.00
2022-11-10T09:30:26.301Z,4.12
2022-11-10T09:32:58.106Z,3.87
2022-11-10T09:35:28.685Z,4.37
2022-11-10T09:37:59.055Z,4.17
2022-11-10T09:40:41.244Z,4.00
2022-11-10T09:43:14.695Z,3.60
2022-11-10T09:45:47.841Z,3.72
2022-11-10T09:48:30.161Z,3.80
2022-11-10T09:51:09.751Z,3.58
2022-11-10T09:53:46.072Z,3.60
2022-11-10T09:56:19.550Z,3.72
2022-11-10T09:58:50.705Z,4.45
2022-11-10T10:01:39.235Z,4.05
2022-11-10T10:04:35.428Z,4.15
2022-11-10T10:07:14.406Z,3.80
2022-11-10T10:09:53.891Z,4.50
2022-11-10T10:12:30.344Z,4.12
2022-11-10T10:15:28.368Z,4.42
2022-11-10T10:18:18.404Z,4.37
2022-11-10T10:21:12.778Z,4.08
2022-11-10T10:24:08.583Z,4.08
2022-11-10T10:26:23.830Z,4.28
2022-11-10T10:28:55.239Z,3.58
2022-11-10T10:31:33.957Z,3.75
2022-11-10T10:34:05.172Z,4.22
2022-11-10T10:36:35.457Z,3.90
2022-11-10T10:39:18.061Z,3.90
2022-11-10T10:41:48.880Z,4.03
2022-11-10T10:44:20.646Z,3.75
2022-11-10T10:47:00.320Z,4.00
2022-11-10T10:49:36.748Z,3.52
2022-11-10T10:52:15.287Z,3.98
2022-11-10T10:54:45.763Z,3.55
2022-11-10T10:57:31.219Z,3.40
2022-11-10T11:00:25.214Z,3.72
2022-11-10T11:03:07.286Z,3.30
2022-11-10T11:05:37.738Z,3.92
2022-11-10T11:08:11.220Z,3.90
2022-11-10T11:10:44.777Z,3.75
2022-11-10T11:13:26.605Z,3.20
2022-11-10T11:16:01.703Z,3.75
2022-11-10T11:18:33.469Z,3.65
2022-11-10T11:21:16.041Z,3.25
2022-11-10T11:24:08.677Z,3.85
2022-11-10T11:27:03.240Z,3.58
2022-11-10T11:29:45.258Z,3.55
2022-11-10T11:32:41.124Z,3.62
2022-11-10T11:35:35.783Z,3.30
2022-11-10T11:38:27.558Z,3.25
2022-11-10T11:41:28.389Z,3.25
2022-11-10T11:44:21.240Z,3.67
2022-11-10T11:46:57.631Z,3.00
2022-11-10T11:49:52.123Z,3.37
2022-11-10T11:52:46.895Z,3.42
2022-11-10T11:55:28.650Z,3.60
2022-11-10T11:58:35.329Z,3.52
2022-11-10T12:01:14.459Z,3.30
2022-11-10T12:04:24.176Z,3.30
2022-11-10T12:07:03.526Z,3.22
2022-11-10T12:09:39.511Z,2.90
2022-11-10T12:12:36.650Z,3.05
2022-11-10T12:15:21.843Z,3.15
2022-11-10T12:17:58.108Z,4.50
2022-11-10T12:20:48.934Z,3.02
2022-11-10T12:23:37.178Z,2.83
2022-11-10T12:26:13.269Z,3.15
2022-11-10T12:28:46.679Z,3.10
2022-11-10T12:31:20.572Z,2.95
2022-11-10T12:33:56.982Z,3.70
2022-11-10T12:36:29.906Z,3.72
2022-11-10T12:39:09.529Z,2.77
2022-11-10T12:41:55.419Z,3.00
2022-11-10T12:44:46.971Z,3.20
2022-11-10T12:47:20.354Z,3.60
2022-11-10T12:50:12.163Z,3.70
2022-11-10T12:52:45.580Z,2.75
2022-11-10T12:55:16.414Z,3.12
2022-11-10T12:57:47.645Z,2.72
2022-11-10T13:00:27.793Z,2.90
2022-11-10T13:02:56.805Z,3.25
2022-11-10T13:05:30.284Z,2.80
2022-11-10T13:08:21.144Z,3.12
2022-11-10T13:11:15.377Z,2.55
2022-11-10T13:14:00.747Z,2.55
2022-11-10T13:16:47.276Z,2.35
2022-11-10T13:19:33.717Z,2.52
2022-11-10T13:22:07.408Z,2.67
2022-11-10T13:24:40.875Z,2.20
2022-11-10T13:27:14.300Z,2.75
2022-11-10T13:29:47.810Z,2.40
2022-11-10T13:32:36.602Z,2.37
2022-11-10T13:35:32.696Z,4.08
2022-11-10T13:38:03.192Z,3.05
2022-11-10T13:40:36.173Z,2.92
2022-11-10T13:43:21.865Z,3.02
2022-11-10T13:45:55.234Z,2.65
2022-11-10T13:48:55.802Z,2.95
2022-11-10T13:51:46.319Z,2.98
2022-11-10T13:54:22.813Z,2.87
2022-11-10T13:57:01.948Z,2.92
2022-11-10T13:59:37.107Z,2.90
2022-11-10T14:02:36.448Z,2.70
2022-11-10T14:05:09.723Z,2.60
2022-11-10T14:07:45.506Z,2.47
2022-11-10T14:10:19.292Z,3.12
2022-11-10T14:12:55.688Z,2.70
2022-11-10T14:15:37.805Z,2.80
2022-11-10T14:18:20.063Z,2.70
2022-11-10T14:20:56.571Z,3.37
2022-11-10T14:23:36.331Z,2.30
2022-11-10T14:26:09.778Z,3.08
2022-11-10T14:28:40.650Z,2.60
2022-11-10T14:31:25.798Z,2.60
2022-11-10T14:33:59.811Z,2.58
2022-11-10T14:36:30.806Z,2.77
2022-11-10T14:39:02.832Z,2.50
2022-11-10T14:41:33.304Z,2.62
2022-11-10T14:44:08.738Z,3.15
2022-11-10T14:46:39.201Z,2.85
2022-11-10T14:49:11.741Z,2.50
2022-11-10T14:51:42.138Z,2.65
2022-11-10T14:54:14.930Z,2.65
2022-11-10T14:56:47.133Z,2.70
2022-11-10T14:59:19.341Z,2.75
2022-11-10T15:01:55.700Z,2.85
2022-11-10T15:04:31.853Z,2.95
2022-11-10T15:07:03.000Z,3.00
2022-11-10T15:09:33.895Z,2.62
2022-11-10T15:12:19.544Z,2.72
2022-11-10T15:14:53.018Z,3.08
2022-11-10T15:17:24.928Z,2.80
2022-11-10T15:19:56.112Z,3.15
2022-11-10T15:22:32.602Z,2.98
2022-11-10T15:25:11.681Z,2.83
2022-11-10T15:27:43.476Z,2.72
2022-11-10T15:30:24.752Z,2.90
2022-11-10T15:33:00.945Z,3.27
2022-11-10T15:35:33.551Z,3.12
2022-11-10T15:38:15.562Z,3.35
2022-11-10T15:40:49.948Z,3.30
2022-11-10T15:43:26.789Z,3.05
2022-11-10T15:46:03.113Z,3.70
2022-11-10T15:48:38.881Z,3.50
2022-11-10T15:51:11.979Z,3.00
2022-11-10T15:53:47.958Z,3.80
2022-11-10T15:56:21.286Z,3.58
2022-11-10T15:59:01.848Z,3.67
2022-11-10T16:01:31.197Z,3.62
2022-11-10T16:04:01.633Z,3.22
2022-11-10T16:06:32.357Z,3.15
2022-11-10T16:09:02.907Z,3.50
2022-11-10T16:11:37.174Z,3.40
2022-11-10T16:14:09.357Z,3.77
2022-11-10T16:16:40.627Z,3.40
2022-11-10T16:19:14.214Z,3.33
2022-11-10T16:21:44.605Z,3.20
2022-11-10T16:24:14.984Z,4.05
2022-11-10T16:26:45.862Z,3.20
2022-11-10T16:29:18.600Z,3.22
2022-11-10T16:31:50.334Z,3.45
2022-11-10T16:34:20.864Z,4.30
2022-11-10T16:36:51.373Z,3.95
2022-11-10T16:39:21.848Z,3.35
2022-11-10T16:41:52.356Z,3.42
2022-11-10T16:44:25.296Z,3.40
2022-11-10T16:46:57.315Z,3.40
2022-11-10T16:49:31.553Z,3.58
2022-11-10T16:52:07.649Z,3.42
2022-11-10T16:54:38.196Z,4.65
2022-11-10T16:57:11.703Z,3.67
2022-11-10T16:59:43.952Z,3.60
2022-11-10T17:02:34.066Z,3.55
2022-11-10T17:05:05.354Z,4.00
2022-11-10T17:07:36.523Z,4.05
2022-11-10T17:10:08.145Z,4.05
2022-11-10T17:12:38.537Z,4.20
2022-11-10T17:15:11.106Z,4.55
2022-11-10T17:17:43.583Z,4.03
2022-11-10T17:20:29.083Z,4.10
2022-11-10T17:23:01.057Z,4.25
2022-11-10T17:25:34.469Z,4.70
2022-11-10T17:28:05.033Z,3.90
2022-11-10T17:30:35.491Z,4.40
2022-11-10T17:33:06.118Z,4.15
2022-11-10T17:35:48.336Z,4.40
2022-11-10T17:38:27.737Z,4.37
2022-11-10T17:40:58.610Z,4.72
2022-11-10T17:43:28.984Z,3.40
2022-11-10T17:46:00.301Z,4.28
2022-11-10T17:48:30.718Z,4.72
2022-11-10T17:51:02.140Z,4.30
2022-11-10T17:53:33.150Z,4.37
2022-11-10T17:56:03.524Z,5.25
2022-11-10T17:58:33.930Z,4.50
2022-11-10T18:01:05.871Z,4.30
2022-11-10T18:03:36.223Z,4.40
2022-11-10T18:06:07.633Z,4.67
2022-11-10T18:08:38.437Z,4.78
2022-11-10T18:11:10.940Z,4.30
2022-11-10T18:13:42.602Z,3.75
2022-11-10T18:16:14.387Z,4.10
2022-11-10T18:18:44.771Z,4.08
2022-11-10T18:21:15.247Z,3.85
2022-11-10T18:23:46.095Z,4.30
2022-11-10T18:26:16.526Z,4.28
2022-11-10T18:28:48.670Z,4.65
2022-11-10T18:31:19.092Z,3.72
2022-11-10T18:33:49.536Z,4.45
2022-11-10T18:36:19.844Z,3.70
2022-11-10T18:38:50.121Z,4.30
2022-11-10T18:41:38.640Z,4.05
2022-11-10T18:44:09.049Z,3.87
2022-11-10T18:46:39.416Z,4.35
2022-11-10T18:49:10.214Z,4.28
2022-11-10T18:51:40.595Z,4.03
2022-11-10T18:54:12.983Z,4.30
2022-11-10T18:56:43.752Z,4.50
2022-11-10T18:59:15.150Z,4.10
2022-11-10T19:01:45.797Z,4.50
2022-11-10T19:04:16.352Z,4.03
2022-11-10T19:06:47.144Z,4.17
2022-11-10T19:09:17.752Z,4.08
2022-11-10T19:11:48.074Z,4.53
2022-11-10T19:14:18.475Z,5.00
2022-11-10T19:16:48.973Z,6.12
2022-11-10T19:19:19.297Z,4.80
2022-11-10T19:21:49.624Z,4.90
2022-11-10T19:24:28.181Z,5.35
2022-11-10T19:26:57.411Z,4.72
2022-11-10T19:29:27.495Z,4.83
2022-11-10T19:31:58.026Z,4.15
2022-11-10T19:34:28.443Z,4.37
2022-11-10T19:36:58.830Z,5.50
2022-11-10T19:39:29.336Z,5.47
2022-11-10T19:41:59.732Z,4.97
2022-11-10T19:44:30.223Z,4.62
2022-11-10T19:47:00.698Z,4.62
2022-11-10T19:49:32.256Z,4.85
2022-11-10T19:52:02.662Z,4.20
2022-11-10T19:54:33.184Z,4.90
2022-11-10T19:57:03.708Z,4.08
2022-11-10T19:59:34.397Z,4.67
2022-11-10T20:02:04.871Z,4.30
2022-11-10T20:04:37.021Z,4.37
2022-11-10T20:07:25.355Z,4.25
2022-11-10T20:09:55.876Z,4.70
2022-11-10T20:12:26.204Z,4.50
2022-11-10T20:14:56.809Z,13.43
2022-11-10T20:17:27.206Z,6.62
2022-11-10T20:19:57.597Z,4.25
2022-11-10T20:22:28.130Z,4.28
2022-11-10T20:24:59.020Z,4.20
2022-11-10T20:27:29.995Z,3.95
2022-11-10T20:30:00.444Z,4.50
2022-11-10T20:32:31.181Z,4.37
2022-11-10T20:35:01.875Z,4.97
2022-11-10T20:37:35.662Z,4.40
2022-11-10T20:40:37.695Z,5.20
2022-11-10T20:42:42.830Z,4.17
2022-11-10T20:45:12.800Z,4.03
2022-11-10T20:47:43.191Z,4.53
2022-11-10T20:50:17.140Z,4.83
2022-11-10T20:52:46.174Z,3.80
2022-11-10T20:55:18.525Z,4.33
2022-11-10T20:57:48.994Z,4.58
2022-11-10T21:00:19.896Z,4.45
2022-11-10T21:02:50.254Z,4.17
2022-11-10T21:05:20.672Z,3.98
2022-11-10T21:07:51.046Z,4.08
2022-11-10T21:10:21.445Z,7.65
2022-11-10T21:12:51.960Z,5.03
2022-11-10T21:15:22.512Z,3.60
2022-11-10T21:17:52.867Z,4.40
2022-11-10T21:20:23.285Z,3.80
2022-11-10T21:22:55.186Z,4.10
2022-11-10T21:25:25.869Z,4.50
2022-11-10T21:27:56.243Z,4.30
2022-11-10T21:30:26.577Z,4.15
2022-11-10T21:32:57.082Z,4.15
2022-11-10T21:35:27.578Z,3.98
2022-11-10T21:37:57.886Z,3.92
2022-11-10T21:40:28.283Z,3.87
2022-11-10T21:42:59.508Z,3.60
2022-11-10T21:45:29.906Z,3.80
2022-11-10T21:48:04.255Z,3.30
2022-11-10T21:50:34.682Z,3.87
2022-11-10T21:53:10.753Z,5.45
2022-11-10T21:55:41.169Z,7.55
2022-11-10T21:58:11.611Z,3.75
2022-11-10T22:00:41.967Z,3.83
2022-11-10T22:03:12.471Z,3.80
2022-11-10T22:05:42.886Z,3.87
2022-11-10T22:08:13.276Z,3.42
2022-11-10T22:11:01.772Z,3.37
2022-11-10T22:13:50.249Z,3.25
2022-11-10T22:16:50.487Z,3.40
2022-11-10T22:19:20.967Z,3.50
2022-11-10T22:21:51.396Z,3.50
2022-11-10T22:24:26.474Z,3.42
2022-11-10T22:26:59.144Z,3.70
2022-11-10T22:29:33.739Z,3.65
2022-11-10T22:32:04.609Z,3.50
2022-11-10T22:34:34.962Z,3.25
2022-11-10T22:37:05.495Z,3.90
2022-11-10T22:39:53.711Z,3.67
2022-11-10T22:42:41.900Z,3.45
2022-11-10T22:45:12.299Z,3.75
2022-11-10T22:48:00.575Z,3.62
2022-11-10T22:50:31.018Z,3.77
2022-11-10T22:53:01.412Z,3.77
2022-11-10T22:55:31.868Z,3.50
2022-11-10T22:58:02.254Z,3.67
2022-11-10T23:00:32.628Z,4.28
2022-11-10T23:03:03.061Z,3.45
2022-11-10T23:05:39.441Z,8.88
2022-11-10T23:08:09.813Z,4.17
2022-11-10T23:10:40.247Z,3.67
2022-11-10T23:13:10.599Z,3.52
2022-11-10T23:15:41.959Z,4.33
2022-11-10T23:18:12.340Z,3.62
2022-11-10T23:20:42.765Z,3.75
2022-11-10T23:23:13.312Z,3.60
2022-11-10T23:25:43.716Z,4.28
2022-11-10T23:28:14.082Z,4.28
2022-11-10T23:30:44.480Z,4.58
2022-11-10T23:33:14.907Z,3.60
2022-11-10T23:35:45.522Z,3.75
2022-11-10T23:38:16.272Z,3.50
2022-11-10T23:40:46.784Z,3.50
2022-11-10T23:43:17.155Z,3.47
2022-11-10T23:46:05.920Z,3.65
2022-11-10T23:48:20.023Z,3.80
2022-11-10T23:50:51.094Z,3.80
2022-11-10T23:53:21.758Z,3.55
2022-11-10T23:56:00.357Z,4.08
2022-11-10T23:58:31.632Z,3.90
